sensor_id;sensor_type;location;lat;lon;timestamp;P1;durP1;ratioP1;P2;durP2;ratioP2
78563;SDS011;67856;47.754;19.088;2023-12-14T00:02:51;5.27;;;3.13;;
78563;SDS011;67856;47.754;19.088;2023-12-14T00:05:53;6.13;;;3.47;;
78563;SDS011;67856;47.754;19.088;2023-12-14T00:08:56;7.13;;;3.88;;
78563;SDS011;67856;47.754;19.088;2023-12-14T00:11:58;7.00;;;3.70;;
78563;SDS011;67856;47.754;19.088;2023-12-14T00:15:00;6.93;;;3.80;;
78563;SDS011;67856;47.754;19.088;2023-12-14T00:18:03;7.23;;;4.07;;
78563;SDS011;67856;47.754;19.088;2023-12-14T00:21:05;7.07;;;3.90;;
78563;SDS011;67856;47.754;19.088;2023-12-14T00:24:08;4.88;;;2.80;;
78563;SDS011;67856;47.754;19.088;2023-12-14T00:27:10;7.28;;;3.78;;
78563;SDS011;67856;47.754;19.088;2023-12-14T00:30:13;8.13;;;3.63;;
78563;SDS011;67856;47.754;19.088;2023-12-14T00:33:15;7.77;;;3.80;;
78563;SDS011;67856;47.754;19.088;2023-12-14T00:36:18;8.37;;;4.37;;
78563;SDS011;67856;47.754;19.088;2023-12-14T00:39:21;5.93;;;2.88;;
78563;SDS011;67856;47.754;19.088;2023-12-14T00:42:23;6.18;;;2.95;;
78563;SDS011;67856;47.754;19.088;2023-12-14T00:45:26;5.38;;;2.70;;
78563;SDS011;67856;47.754;19.088;2023-12-14T00:48:28;4.20;;;2.37;;
78563;SDS011;67856;47.754;19.088;2023-12-14T00:51:31;5.13;;;3.00;;
78563;SDS011;67856;47.754;19.088;2023-12-14T00:54:33;4.60;;;2.80;;
78563;SDS011;67856;47.754;19.088;2023-12-14T00:57:35;4.35;;;2.83;;
78563;SDS011;67856;47.754;19.088;2023-12-14T01:00:38;5.15;;;3.05;;
78563;SDS011;67856;47.754;19.088;2023-12-14T01:03:40;4.83;;;2.80;;
78563;SDS011;67856;47.754;19.088;2023-12-14T01:06:43;6.30;;;3.03;;
78563;SDS011;67856;47.754;19.088;2023-12-14T01:09:45;5.15;;;3.63;;
78563;SDS011;67856;47.754;19.088;2023-12-14T01:12:48;5.70;;;3.50;;
78563;SDS011;67856;47.754;19.088;2023-12-14T01:15:50;5.10;;;3.28;;
78563;SDS011;67856;47.754;19.088;2023-12-14T01:18:52;5.67;;;3.50;;
78563;SDS011;67856;47.754;19.088;2023-12-14T01:21:55;6.73;;;4.00;;
78563;SDS011;67856;47.754;19.088;2023-12-14T01:24:58;7.07;;;3.90;;
78563;SDS011;67856;47.754;19.088;2023-12-14T01:28:00;6.63;;;4.10;;
78563;SDS011;67856;47.754;19.088;2023-12-14T01:31:02;9.02;;;4.60;;
78563;SDS011;67856;47.754;19.088;2023-12-14T01:34:05;8.43;;;4.00;;
78563;SDS011;67856;47.754;19.088;2023-12-14T01:37:07;7.70;;;4.27;;
78563;SDS011;67856;47.754;19.088;2023-12-14T01:40:10;6.65;;;3.80;;
78563;SDS011;67856;47.754;19.088;2023-12-14T01:43:12;5.93;;;3.40;;
78563;SDS011;67856;47.754;19.088;2023-12-14T01:46:15;5.65;;;3.60;;
78563;SDS011;67856;47.754;19.088;2023-12-14T01:49:18;5.57;;;3.20;;
78563;SDS011;67856;47.754;19.088;2023-12-14T01:52:20;5.90;;;3.27;;
78563;SDS011;67856;47.754;19.088;2023-12-14T01:55:23;4.43;;;3.13;;
78563;SDS011;67856;47.754;19.088;2023-12-14T01:58:27;4.55;;;3.00;;
78563;SDS011;67856;47.754;19.088;2023-12-14T02:01:34;5.07;;;3.22;;
78563;SDS011;67856;47.754;19.088;2023-12-14T02:04:42;4.77;;;3.03;;
78563;SDS011;67856;47.754;19.088;2023-12-14T02:07:45;4.47;;;2.90;;
78563;SDS011;67856;47.754;19.088;2023-12-14T02:10:47;6.10;;;3.25;;
78563;SDS011;67856;47.754;19.088;2023-12-14T02:13:50;5.20;;;3.15;;
78563;SDS011;67856;47.754;19.088;2023-12-14T02:16:52;5.43;;;3.22;;
78563;SDS011;67856;47.754;19.088;2023-12-14T02:19:55;5.60;;;3.40;;
78563;SDS011;67856;47.754;19.088;2023-12-14T02:22:58;4.63;;;2.97;;
78563;SDS011;67856;47.754;19.088;2023-12-14T02:26:01;5.13;;;3.15;;
78563;SDS011;67856;47.754;19.088;2023-12-14T02:29:03;5.05;;;3.20;;
78563;SDS011;67856;47.754;19.088;2023-12-14T02:32:06;4.80;;;3.20;;
78563;SDS011;67856;47.754;19.088;2023-12-14T02:35:09;5.03;;;3.10;;
78563;SDS011;67856;47.754;19.088;2023-12-14T02:38:11;4.50;;;2.80;;
78563;SDS011;67856;47.754;19.088;2023-12-14T02:41:14;5.38;;;3.42;;
78563;SDS011;67856;47.754;19.088;2023-12-14T02:44:16;5.93;;;3.42;;
78563;SDS011;67856;47.754;19.088;2023-12-14T02:47:19;5.97;;;3.45;;
78563;SDS011;67856;47.754;19.088;2023-12-14T02:50:21;4.37;;;3.03;;
78563;SDS011;67856;47.754;19.088;2023-12-14T02:53:23;5.77;;;3.00;;
78563;SDS011;67856;47.754;19.088;2023-12-14T02:56:26;4.93;;;3.10;;
78563;SDS011;67856;47.754;19.088;2023-12-14T02:59:28;5.60;;;3.00;;
78563;SDS011;67856;47.754;19.088;2023-12-14T03:02:31;5.35;;;3.22;;
78563;SDS011;67856;47.754;19.088;2023-12-14T03:05:34;4.33;;;2.83;;
78563;SDS011;67856;47.754;19.088;2023-12-14T03:08:36;5.07;;;3.10;;
78563;SDS011;67856;47.754;19.088;2023-12-14T03:11:39;4.15;;;2.90;;
78563;SDS011;67856;47.754;19.088;2023-12-14T03:14:41;3.53;;;2.33;;
78563;SDS011;67856;47.754;19.088;2023-12-14T03:17:43;3.92;;;2.75;;
78563;SDS011;67856;47.754;19.088;2023-12-14T03:20:46;4.17;;;2.53;;
78563;SDS011;67856;47.754;19.088;2023-12-14T03:23:49;4.30;;;2.60;;
78563;SDS011;67856;47.754;19.088;2023-12-14T03:26:52;3.88;;;2.45;;
78563;SDS011;67856;47.754;19.088;2023-12-14T03:29:54;3.28;;;2.17;;
78563;SDS011;67856;47.754;19.088;2023-12-14T03:32:56;3.88;;;2.10;;
78563;SDS011;67856;47.754;19.088;2023-12-14T03:35:59;4.40;;;2.50;;
78563;SDS011;67856;47.754;19.088;2023-12-14T03:39:02;3.70;;;2.30;;
78563;SDS011;67856;47.754;19.088;2023-12-14T03:42:04;3.70;;;2.05;;
78563;SDS011;67856;47.754;19.088;2023-12-14T03:45:06;3.47;;;2.20;;
78563;SDS011;67856;47.754;19.088;2023-12-14T03:48:09;3.53;;;2.33;;
78563;SDS011;67856;47.754;19.088;2023-12-14T03:51:12;3.23;;;2.03;;
78563;SDS011;67856;47.754;19.088;2023-12-14T03:54:14;2.57;;;1.80;;
78563;SDS011;67856;47.754;19.088;2023-12-14T03:57:17;3.72;;;2.00;;
78563;SDS011;67856;47.754;19.088;2023-12-14T04:00:20;2.78;;;1.90;;
78563;SDS011;67856;47.754;19.088;2023-12-14T04:03:22;3.45;;;2.13;;
78563;SDS011;67856;47.754;19.088;2023-12-14T04:06:25;4.00;;;2.10;;
78563;SDS011;67856;47.754;19.088;2023-12-14T04:09:28;3.57;;;2.20;;
78563;SDS011;67856;47.754;19.088;2023-12-14T04:12:30;2.88;;;1.90;;
78563;SDS011;67856;47.754;19.088;2023-12-14T04:15:33;2.90;;;1.98;;
78563;SDS011;67856;47.754;19.088;2023-12-14T04:18:35;2.63;;;1.90;;
78563;SDS011;67856;47.754;19.088;2023-12-14T04:21:39;2.83;;;1.90;;
78563;SDS011;67856;47.754;19.088;2023-12-14T04:24:42;3.17;;;1.90;;
78563;SDS011;67856;47.754;19.088;2023-12-14T04:27:44;4.03;;;2.03;;
78563;SDS011;67856;47.754;19.088;2023-12-14T04:30:46;3.15;;;1.88;;
78563;SDS011;67856;47.754;19.088;2023-12-14T04:33:49;2.90;;;1.80;;
78563;SDS011;67856;47.754;19.088;2023-12-14T04:36:51;2.67;;;1.60;;
78563;SDS011;67856;47.754;19.088;2023-12-14T04:39:54;2.50;;;1.80;;
78563;SDS011;67856;47.754;19.088;2023-12-14T04:42:57;2.58;;;1.85;;
78563;SDS011;67856;47.754;19.088;2023-12-14T04:45:59;3.28;;;1.98;;
78563;SDS011;67856;47.754;19.088;2023-12-14T04:49:02;2.88;;;2.05;;
78563;SDS011;67856;47.754;19.088;2023-12-14T04:52:04;2.70;;;1.77;;
78563;SDS011;67856;47.754;19.088;2023-12-14T04:55:07;2.57;;;1.77;;
78563;SDS011;67856;47.754;19.088;2023-12-14T04:58:10;2.55;;;1.90;;
78563;SDS011;67856;47.754;19.088;2023-12-14T05:01:13;2.72;;;1.73;;
78563;SDS011;67856;47.754;19.088;2023-12-14T05:04:16;2.42;;;1.90;;
78563;SDS011;67856;47.754;19.088;2023-12-14T05:07:19;2.67;;;1.80;;
78563;SDS011;67856;47.754;19.088;2023-12-14T05:10:22;2.50;;;1.70;;
78563;SDS011;67856;47.754;19.088;2023-12-14T05:13:24;2.95;;;1.88;;
78563;SDS011;67856;47.754;19.088;2023-12-14T05:16:27;2.30;;;1.60;;
78563;SDS011;67856;47.754;19.088;2023-12-14T05:19:31;2.92;;;1.90;;
78563;SDS011;67856;47.754;19.088;2023-12-14T05:22:38;3.13;;;1.77;;
78563;SDS011;67856;47.754;19.088;2023-12-14T05:25:41;2.50;;;1.63;;
78563;SDS011;67856;47.754;19.088;2023-12-14T05:28:43;2.40;;;1.77;;
78563;SDS011;67856;47.754;19.088;2023-12-14T05:31:47;2.75;;;1.90;;
78563;SDS011;67856;47.754;19.088;2023-12-14T05:34:49;2.83;;;1.60;;
78563;SDS011;67856;47.754;19.088;2023-12-14T05:37:52;2.87;;;1.93;;
78563;SDS011;67856;47.754;19.088;2023-12-14T05:40:54;2.43;;;1.63;;
78563;SDS011;67856;47.754;19.088;2023-12-14T05:43:57;3.33;;;1.70;;
78563;SDS011;67856;47.754;19.088;2023-12-14T05:46:59;3.45;;;2.15;;
78563;SDS011;67856;47.754;19.088;2023-12-14T05:50:02;3.22;;;2.38;;
78563;SDS011;67856;47.754;19.088;2023-12-14T05:53:05;4.07;;;2.40;;
78563;SDS011;67856;47.754;19.088;2023-12-14T05:56:08;4.23;;;2.60;;
78563;SDS011;67856;47.754;19.088;2023-12-14T05:59:11;3.72;;;2.50;;
78563;SDS011;67856;47.754;19.088;2023-12-14T06:02:13;4.50;;;2.25;;
78563;SDS011;67856;47.754;19.088;2023-12-14T06:05:16;4.45;;;3.00;;
78563;SDS011;67856;47.754;19.088;2023-12-14T06:08:19;4.23;;;3.03;;
78563;SDS011;67856;47.754;19.088;2023-12-14T06:11:22;4.70;;;2.80;;
78563;SDS011;67856;47.754;19.088;2023-12-14T06:14:24;4.53;;;3.05;;
78563;SDS011;67856;47.754;19.088;2023-12-14T06:17:27;5.95;;;3.25;;
78563;SDS011;67856;47.754;19.088;2023-12-14T06:20:32;4.82;;;3.35;;
78563;SDS011;67856;47.754;19.088;2023-12-14T06:23:35;5.70;;;3.63;;
78563;SDS011;67856;47.754;19.088;2023-12-14T06:26:41;6.27;;;4.27;;
78563;SDS011;67856;47.754;19.088;2023-12-14T06:29:47;5.25;;;3.83;;
78563;SDS011;67856;47.754;19.088;2023-12-14T06:32:50;6.70;;;4.32;;
78563;SDS011;67856;47.754;19.088;2023-12-14T06:35:52;9.40;;;5.43;;
78563;SDS011;67856;47.754;19.088;2023-12-14T06:38:55;8.97;;;4.57;;
78563;SDS011;67856;47.754;19.088;2023-12-14T06:41:59;6.90;;;4.60;;
78563;SDS011;67856;47.754;19.088;2023-12-14T06:45:02;8.02;;;4.43;;
78563;SDS011;67856;47.754;19.088;2023-12-14T06:48:05;8.65;;;4.65;;
78563;SDS011;67856;47.754;19.088;2023-12-14T06:51:08;11.30;;;4.60;;
78563;SDS011;67856;47.754;19.088;2023-12-14T06:54:10;11.27;;;5.23;;
78563;SDS011;67856;47.754;19.088;2023-12-14T06:57:13;9.00;;;4.87;;
78563;SDS011;67856;47.754;19.088;2023-12-14T07:00:15;9.73;;;4.60;;
78563;SDS011;67856;47.754;19.088;2023-12-14T07:03:18;10.70;;;5.10;;
78563;SDS011;67856;47.754;19.088;2023-12-14T07:06:21;12.93;;;4.72;;
78563;SDS011;67856;47.754;19.088;2023-12-14T07:09:24;9.40;;;4.90;;
78563;SDS011;67856;47.754;19.088;2023-12-14T07:12:26;13.53;;;4.50;;
78563;SDS011;67856;47.754;19.088;2023-12-14T07:15:29;12.13;;;5.70;;
78563;SDS011;67856;47.754;19.088;2023-12-14T07:18:32;10.20;;;5.10;;
78563;SDS011;67856;47.754;19.088;2023-12-14T07:21:34;14.25;;;5.45;;
78563;SDS011;67856;47.754;19.088;2023-12-14T07:24:37;8.87;;;4.90;;
78563;SDS011;67856;47.754;19.088;2023-12-14T07:31:51;8.50;;;5.15;;
78563;SDS011;67856;47.754;19.088;2023-12-14T07:34:55;8.27;;;5.03;;
78563;SDS011;67856;47.754;19.088;2023-12-14T07:37:58;7.55;;;4.80;;
78563;SDS011;67856;47.754;19.088;2023-12-14T07:41:01;8.90;;;4.50;;
78563;SDS011;67856;47.754;19.088;2023-12-14T07:44:03;7.27;;;4.10;;
78563;SDS011;67856;47.754;19.088;2023-12-14T07:47:08;10.05;;;4.90;;
78563;SDS011;67856;47.754;19.088;2023-12-14T07:50:10;7.75;;;4.35;;
78563;SDS011;67856;47.754;19.088;2023-12-14T07:53:13;10.45;;;4.30;;
78563;SDS011;67856;47.754;19.088;2023-12-14T07:56:15;7.63;;;4.70;;
78563;SDS011;67856;47.754;19.088;2023-12-14T07:59:18;10.20;;;5.17;;
78563;SDS011;67856;47.754;19.088;2023-12-14T08:02:21;17.65;;;6.55;;
78563;SDS011;67856;47.754;19.088;2023-12-14T08:05:23;10.43;;;5.97;;
78563;SDS011;67856;47.754;19.088;2023-12-14T08:08:26;12.95;;;6.20;;
78563;SDS011;67856;47.754;19.088;2023-12-14T08:11:29;13.97;;;6.43;;
78563;SDS011;67856;47.754;19.088;2023-12-14T08:14:35;12.13;;;6.20;;
78563;SDS011;67856;47.754;19.088;2023-12-14T08:17:39;13.25;;;6.45;;
78563;SDS011;67856;47.754;19.088;2023-12-14T08:20:46;13.55;;;7.30;;
78563;SDS011;67856;47.754;19.088;2023-12-14T08:23:51;10.85;;;5.75;;
78563;SDS011;67856;47.754;19.088;2023-12-14T08:26:53;15.30;;;7.13;;
78563;SDS011;67856;47.754;19.088;2023-12-14T08:29:56;15.00;;;6.67;;
78563;SDS011;67856;47.754;19.088;2023-12-14T08:32:58;12.52;;;6.65;;
78563;SDS011;67856;47.754;19.088;2023-12-14T08:36:01;9.43;;;6.00;;
78563;SDS011;67856;47.754;19.088;2023-12-14T08:39:04;14.25;;;6.47;;
78563;SDS011;67856;47.754;19.088;2023-12-14T08:42:06;11.90;;;6.57;;
78563;SDS011;67856;47.754;19.088;2023-12-14T08:45:09;17.23;;;6.30;;
78563;SDS011;67856;47.754;19.088;2023-12-14T08:48:14;11.32;;;6.00;;
78563;SDS011;67856;47.754;19.088;2023-12-14T08:51:17;15.95;;;6.63;;
78563;SDS011;67856;47.754;19.088;2023-12-14T08:54:21;12.73;;;7.25;;
78563;SDS011;67856;47.754;19.088;2023-12-14T08:57:23;17.20;;;7.40;;
78563;SDS011;67856;47.754;19.088;2023-12-14T09:00:26;13.57;;;7.37;;
78563;SDS011;67856;47.754;19.088;2023-12-14T09:03:28;12.68;;;6.88;;
78563;SDS011;67856;47.754;19.088;2023-12-14T09:06:31;13.68;;;6.72;;
78563;SDS011;67856;47.754;19.088;2023-12-14T09:09:33;12.50;;;7.07;;
78563;SDS011;67856;47.754;19.088;2023-12-14T09:12:36;12.53;;;7.07;;
78563;SDS011;67856;47.754;19.088;2023-12-14T09:15:39;12.97;;;6.70;;
78563;SDS011;67856;47.754;19.088;2023-12-14T09:18:41;17.48;;;7.68;;
78563;SDS011;67856;47.754;19.088;2023-12-14T09:21:44;12.85;;;7.10;;
78563;SDS011;67856;47.754;19.088;2023-12-14T09:24:48;12.30;;;7.10;;
78563;SDS011;67856;47.754;19.088;2023-12-14T09:27:50;12.37;;;6.20;;
78563;SDS011;67856;47.754;19.088;2023-12-14T09:30:53;10.27;;;6.53;;
78563;SDS011;67856;47.754;19.088;2023-12-14T09:33:55;10.98;;;6.50;;
78563;SDS011;67856;47.754;19.088;2023-12-14T09:36:58;11.85;;;6.40;;
78563;SDS011;67856;47.754;19.088;2023-12-14T09:40:01;10.63;;;5.97;;
78563;SDS011;67856;47.754;19.088;2023-12-14T09:43:04;18.43;;;6.47;;
78563;SDS011;67856;47.754;19.088;2023-12-14T09:46:09;11.40;;;6.60;;
78563;SDS011;67856;47.754;19.088;2023-12-14T09:49:13;14.23;;;6.97;;
78563;SDS011;67856;47.754;19.088;2023-12-14T09:52:15;13.80;;;6.32;;
78563;SDS011;67856;47.754;19.088;2023-12-14T09:55:18;12.95;;;7.22;;
78563;SDS011;67856;47.754;19.088;2023-12-14T09:58:20;11.30;;;6.63;;
78563;SDS011;67856;47.754;19.088;2023-12-14T10:01:27;13.57;;;7.60;;
78563;SDS011;67856;47.754;19.088;2023-12-14T10:04:31;14.07;;;7.55;;
78563;SDS011;67856;47.754;19.088;2023-12-14T10:07:35;12.23;;;7.00;;
78563;SDS011;67856;47.754;19.088;2023-12-14T10:10:46;15.80;;;7.57;;
78563;SDS011;67856;47.754;19.088;2023-12-14T10:13:51;14.00;;;7.33;;
78563;SDS011;67856;47.754;19.088;2023-12-14T10:16:54;11.77;;;6.63;;
78563;SDS011;67856;47.754;19.088;2023-12-14T10:20:05;13.95;;;6.20;;
78563;SDS011;67856;47.754;19.088;2023-12-14T10:23:08;9.98;;;5.63;;
78563;SDS011;67856;47.754;19.088;2023-12-14T10:26:11;8.20;;;5.70;;
78563;SDS011;67856;47.754;19.088;2023-12-14T10:29:15;11.03;;;5.90;;
78563;SDS011;67856;47.754;19.088;2023-12-14T10:32:17;10.27;;;5.70;;
78563;SDS011;67856;47.754;19.088;2023-12-14T10:35:21;9.85;;;5.50;;
78563;SDS011;67856;47.754;19.088;2023-12-14T10:38:24;7.53;;;5.28;;
78563;SDS011;67856;47.754;19.088;2023-12-14T10:41:28;9.82;;;5.68;;
78563;SDS011;67856;47.754;19.088;2023-12-14T10:44:36;9.33;;;5.53;;
78563;SDS011;67856;47.754;19.088;2023-12-14T10:48:00;10.93;;;5.10;;
78563;SDS011;67856;47.754;19.088;2023-12-14T10:51:04;7.75;;;4.82;;
78563;SDS011;67856;47.754;19.088;2023-12-14T10:54:08;8.23;;;4.90;;
78563;SDS011;67856;47.754;19.088;2023-12-14T10:57:11;8.38;;;5.28;;
78563;SDS011;67856;47.754;19.088;2023-12-14T11:00:15;8.63;;;5.10;;
78563;SDS011;67856;47.754;19.088;2023-12-14T11:03:18;10.77;;;5.07;;
78563;SDS011;67856;47.754;19.088;2023-12-14T11:06:26;9.43;;;5.28;;
78563;SDS011;67856;47.754;19.088;2023-12-14T11:09:36;7.13;;;5.00;;
78563;SDS011;67856;47.754;19.088;2023-12-14T11:12:50;9.63;;;4.55;;
78563;SDS011;67856;47.754;19.088;2023-12-14T11:15:53;9.37;;;5.10;;
78563;SDS011;67856;47.754;19.088;2023-12-14T11:22:26;8.70;;;4.97;;
78563;SDS011;67856;47.754;19.088;2023-12-14T11:25:29;7.88;;;4.38;;
78563;SDS011;67856;47.754;19.088;2023-12-14T11:28:43;8.63;;;4.70;;
78563;SDS011;67856;47.754;19.088;2023-12-14T11:31:46;9.47;;;4.67;;
78563;SDS011;67856;47.754;19.088;2023-12-14T11:34:49;12.30;;;4.80;;
78563;SDS011;67856;47.754;19.088;2023-12-14T11:37:51;8.75;;;4.28;;
78563;SDS011;67856;47.754;19.088;2023-12-14T11:40:55;10.77;;;4.70;;
78563;SDS011;67856;47.754;19.088;2023-12-14T11:43:58;13.18;;;4.45;;
78563;SDS011;67856;47.754;19.088;2023-12-14T11:47:01;8.73;;;4.43;;
78563;SDS011;67856;47.754;19.088;2023-12-14T11:50:04;7.90;;;4.13;;
78563;SDS011;67856;47.754;19.088;2023-12-14T11:53:08;8.82;;;4.30;;
78563;SDS011;67856;47.754;19.088;2023-12-14T11:56:12;12.30;;;4.68;;
78563;SDS011;67856;47.754;19.088;2023-12-14T11:59:15;9.80;;;4.20;;
78563;SDS011;67856;47.754;19.088;2023-12-14T12:02:25;7.77;;;4.00;;
78563;SDS011;67856;47.754;19.088;2023-12-14T12:05:41;13.23;;;4.30;;
78563;SDS011;67856;47.754;19.088;2023-12-14T12:08:45;11.65;;;3.83;;
78563;SDS011;67856;47.754;19.088;2023-12-14T12:11:48;8.48;;;3.80;;
78563;SDS011;67856;47.754;19.088;2023-12-14T12:14:51;11.07;;;4.45;;
78563;SDS011;67856;47.754;19.088;2023-12-14T12:17:55;10.07;;;4.00;;
78563;SDS011;67856;47.754;19.088;2023-12-14T12:20:57;11.53;;;3.97;;
78563;SDS011;67856;47.754;19.088;2023-12-14T12:24:06;7.93;;;3.90;;
78563;SDS011;67856;47.754;19.088;2023-12-14T12:27:27;9.38;;;4.07;;
78563;SDS011;67856;47.754;19.088;2023-12-14T12:30:30;10.75;;;4.03;;
78563;SDS011;67856;47.754;19.088;2023-12-14T12:33:33;7.73;;;4.07;;
78563;SDS011;67856;47.754;19.088;2023-12-14T12:36:41;10.87;;;3.87;;
78563;SDS011;67856;47.754;19.088;2023-12-14T12:39:43;9.05;;;4.03;;
78563;SDS011;67856;47.754;19.088;2023-12-14T12:42:47;7.68;;;4.10;;
78563;SDS011;67856;47.754;19.088;2023-12-14T12:45:50;8.38;;;3.90;;
78563;SDS011;67856;47.754;19.088;2023-12-14T12:48:53;8.20;;;3.80;;
78563;SDS011;67856;47.754;19.088;2023-12-14T12:51:56;7.87;;;4.03;;
78563;SDS011;67856;47.754;19.088;2023-12-14T12:54:59;11.65;;;4.25;;
78563;SDS011;67856;47.754;19.088;2023-12-14T12:58:02;7.72;;;3.88;;
78563;SDS011;67856;47.754;19.088;2023-12-14T13:01:08;6.65;;;3.58;;
78563;SDS011;67856;47.754;19.088;2023-12-14T13:04:20;7.07;;;3.90;;
78563;SDS011;67856;47.754;19.088;2023-12-14T13:07:23;9.90;;;4.17;;
78563;SDS011;67856;47.754;19.088;2023-12-14T13:10:26;9.65;;;4.10;;
78563;SDS011;67856;47.754;19.088;2023-12-14T13:13:33;8.73;;;3.97;;
78563;SDS011;67856;47.754;19.088;2023-12-14T13:16:37;10.93;;;4.07;;
78563;SDS011;67856;47.754;19.088;2023-12-14T13:19:40;8.17;;;4.03;;
78563;SDS011;67856;47.754;19.088;2023-12-14T13:22:44;7.10;;;4.00;;
78563;SDS011;67856;47.754;19.088;2023-12-14T13:25:47;8.23;;;4.20;;
78563;SDS011;67856;47.754;19.088;2023-12-14T13:28:51;7.07;;;4.13;;
78563;SDS011;67856;47.754;19.088;2023-12-14T13:31:54;9.63;;;3.95;;
78563;SDS011;67856;47.754;19.088;2023-12-14T13:34:57;7.80;;;3.73;;
78563;SDS011;67856;47.754;19.088;2023-12-14T13:38:00;13.00;;;6.63;;
78563;SDS011;67856;47.754;19.088;2023-12-14T13:41:03;7.90;;;4.40;;
78563;SDS011;67856;47.754;19.088;2023-12-14T13:44:06;6.85;;;3.72;;
78563;SDS011;67856;47.754;19.088;2023-12-14T13:47:08;7.50;;;4.10;;
78563;SDS011;67856;47.754;19.088;2023-12-14T13:50:12;6.53;;;3.90;;
78563;SDS011;67856;47.754;19.088;2023-12-14T13:53:14;6.80;;;4.30;;
78563;SDS011;67856;47.754;19.088;2023-12-14T13:56:20;9.18;;;4.30;;
78563;SDS011;67856;47.754;19.088;2023-12-14T13:59:23;19.40;;;3.63;;
78563;SDS011;67856;47.754;19.088;2023-12-14T14:02:26;7.97;;;3.97;;
78563;SDS011;67856;47.754;19.088;2023-12-14T14:05:31;6.23;;;3.90;;
78563;SDS011;67856;47.754;19.088;2023-12-14T14:08:35;9.83;;;3.83;;
78563;SDS011;67856;47.754;19.088;2023-12-14T14:11:38;6.78;;;3.75;;
78563;SDS011;67856;47.754;19.088;2023-12-14T14:14:43;8.85;;;4.15;;
78563;SDS011;67856;47.754;19.088;2023-12-14T14:17:47;8.05;;;4.25;;
78563;SDS011;67856;47.754;19.088;2023-12-14T14:20:54;10.17;;;4.17;;
78563;SDS011;67856;47.754;19.088;2023-12-14T14:23:57;6.97;;;3.80;;
78563;SDS011;67856;47.754;19.088;2023-12-14T14:27:00;8.38;;;4.00;;
78563;SDS011;67856;47.754;19.088;2023-12-14T14:30:02;10.77;;;4.30;;
78563;SDS011;67856;47.754;19.088;2023-12-14T14:33:06;8.82;;;3.80;;
78563;SDS011;67856;47.754;19.088;2023-12-14T14:36:08;12.40;;;4.17;;
78563;SDS011;67856;47.754;19.088;2023-12-14T14:39:11;11.07;;;4.23;;
78563;SDS011;67856;47.754;19.088;2023-12-14T14:42:15;10.82;;;4.13;;
78563;SDS011;67856;47.754;19.088;2023-12-14T14:45:18;8.82;;;3.88;;
78563;SDS011;67856;47.754;19.088;2023-12-14T14:48:20;10.35;;;3.15;;
78563;SDS011;67856;47.754;19.088;2023-12-14T14:51:23;16.20;;;4.33;;
78563;SDS011;67856;47.754;19.088;2023-12-14T14:54:27;19.50;;;5.23;;
78563;SDS011;67856;47.754;19.088;2023-12-14T14:57:30;16.13;;;5.00;;
78563;SDS011;67856;47.754;19.088;2023-12-14T15:00:34;11.07;;;4.45;;
78563;SDS011;67856;47.754;19.088;2023-12-14T15:03:41;18.20;;;5.10;;
78563;SDS011;67856;47.754;19.088;2023-12-14T15:06:43;15.63;;;4.83;;
78563;SDS011;67856;47.754;19.088;2023-12-14T15:09:46;14.30;;;4.47;;
78563;SDS011;67856;47.754;19.088;2023-12-14T15:12:49;12.32;;;4.40;;
78563;SDS011;67856;47.754;19.088;2023-12-14T15:15:51;14.15;;;4.53;;
78563;SDS011;67856;47.754;19.088;2023-12-14T15:18:53;14.32;;;4.40;;
78563;SDS011;67856;47.754;19.088;2023-12-14T15:21:57;11.33;;;4.20;;
78563;SDS011;67856;47.754;19.088;2023-12-14T15:24:59;9.87;;;4.10;;
78563;SDS011;67856;47.754;19.088;2023-12-14T15:28:07;11.10;;;4.07;;
78563;SDS011;67856;47.754;19.088;2023-12-14T15:31:10;11.48;;;4.30;;
78563;SDS011;67856;47.754;19.088;2023-12-14T15:34:13;11.98;;;4.32;;
78563;SDS011;67856;47.754;19.088;2023-12-14T15:37:16;9.67;;;4.13;;
78563;SDS011;67856;47.754;19.088;2023-12-14T15:40:19;13.23;;;3.83;;
78563;SDS011;67856;47.754;19.088;2023-12-14T15:43:21;9.55;;;4.45;;
78563;SDS011;67856;47.754;19.088;2023-12-14T15:46:24;11.52;;;3.97;;
78563;SDS011;67856;47.754;19.088;2023-12-14T15:49:26;11.30;;;4.30;;
78563;SDS011;67856;47.754;19.088;2023-12-14T15:52:29;11.63;;;4.00;;
78563;SDS011;67856;47.754;19.088;2023-12-14T15:55:31;8.83;;;4.20;;
78563;SDS011;67856;47.754;19.088;2023-12-14T15:58:34;9.80;;;3.90;;
78563;SDS011;67856;47.754;19.088;2023-12-14T16:01:37;10.52;;;3.90;;
78563;SDS011;67856;47.754;19.088;2023-12-14T16:04:42;9.30;;;3.85;;
78563;SDS011;67856;47.754;19.088;2023-12-14T16:07:46;11.13;;;4.03;;
78563;SDS011;67856;47.754;19.088;2023-12-14T16:10:50;9.33;;;4.33;;
78563;SDS011;67856;47.754;19.088;2023-12-14T16:13:55;10.45;;;3.90;;
78563;SDS011;67856;47.754;19.088;2023-12-14T16:16:59;8.48;;;3.83;;
78563;SDS011;67856;47.754;19.088;2023-12-14T16:20:01;9.35;;;4.10;;
78563;SDS011;67856;47.754;19.088;2023-12-14T16:23:06;7.70;;;3.43;;
78563;SDS011;67856;47.754;19.088;2023-12-14T16:26:11;8.67;;;3.83;;
78563;SDS011;67856;47.754;19.088;2023-12-14T16:29:14;9.48;;;4.07;;
78563;SDS011;67856;47.754;19.088;2023-12-14T16:32:17;8.90;;;3.90;;
78563;SDS011;67856;47.754;19.088;2023-12-14T16:35:20;10.80;;;4.50;;
78563;SDS011;67856;47.754;19.088;2023-12-14T16:38:23;11.50;;;4.83;;
78563;SDS011;67856;47.754;19.088;2023-12-14T16:41:25;14.50;;;4.73;;
78563;SDS011;67856;47.754;19.088;2023-12-14T16:44:28;11.45;;;4.20;;
78563;SDS011;67856;47.754;19.088;2023-12-14T16:47:30;9.55;;;4.47;;
78563;SDS011;67856;47.754;19.088;2023-12-14T16:50:33;10.23;;;4.53;;
78563;SDS011;67856;47.754;19.088;2023-12-14T16:53:35;13.83;;;3.77;;
78563;SDS011;67856;47.754;19.088;2023-12-14T16:56:38;10.13;;;4.47;;
78563;SDS011;67856;47.754;19.088;2023-12-14T16:59:45;10.93;;;4.25;;
78563;SDS011;67856;47.754;19.088;2023-12-14T17:02:47;11.63;;;4.20;;
78563;SDS011;67856;47.754;19.088;2023-12-14T17:05:50;11.60;;;4.70;;
78563;SDS011;67856;47.754;19.088;2023-12-14T17:08:52;8.80;;;3.90;;
78563;SDS011;67856;47.754;19.088;2023-12-14T17:11:55;8.80;;;4.30;;
78563;SDS011;67856;47.754;19.088;2023-12-14T17:14:57;8.07;;;4.30;;
78563;SDS011;67856;47.754;19.088;2023-12-14T17:18:00;8.50;;;4.07;;
78563;SDS011;67856;47.754;19.088;2023-12-14T17:21:02;11.32;;;4.20;;
78563;SDS011;67856;47.754;19.088;2023-12-14T17:24:06;12.03;;;5.07;;
78563;SDS011;67856;47.754;19.088;2023-12-14T17:27:11;10.00;;;4.13;;
78563;SDS011;67856;47.754;19.088;2023-12-14T17:30:14;7.35;;;3.90;;
78563;SDS011;67856;47.754;19.088;2023-12-14T17:33:16;10.43;;;4.28;;
78563;SDS011;67856;47.754;19.088;2023-12-14T17:36:19;10.88;;;4.72;;
78563;SDS011;67856;47.754;19.088;2023-12-14T17:39:21;8.40;;;4.10;;
78563;SDS011;67856;47.754;19.088;2023-12-14T17:42:24;8.83;;;3.63;;
78563;SDS011;67856;47.754;19.088;2023-12-14T17:45:26;10.98;;;3.85;;
78563;SDS011;67856;47.754;19.088;2023-12-14T17:48:29;5.85;;;3.60;;
78563;SDS011;67856;47.754;19.088;2023-12-14T17:51:32;8.68;;;4.07;;
78563;SDS011;67856;47.754;19.088;2023-12-14T17:54:36;7.37;;;4.00;;
78563;SDS011;67856;47.754;19.088;2023-12-14T17:57:39;9.80;;;3.60;;
78563;SDS011;67856;47.754;19.088;2023-12-14T18:00:41;8.45;;;4.03;;
78563;SDS011;67856;47.754;19.088;2023-12-14T18:03:44;8.45;;;4.43;;
78563;SDS011;67856;47.754;19.088;2023-12-14T18:06:46;7.85;;;4.38;;
78563;SDS011;67856;47.754;19.088;2023-12-14T18:09:49;10.17;;;4.10;;
78563;SDS011;67856;47.754;19.088;2023-12-14T18:12:52;7.13;;;3.97;;